Time;durP1;ratioP1;P1;durP2;ratioP2;P2;SDS_P1;SDS_P2;PMS_P1;PMS_P2;Temp;Humidity;BMP_temperature;BMP_pressure;BME280_temperature;BME280_humidity;BME280_pressure;Samples;Min_cycle;Max_cycle;Signal;HPM_P1;HPM_P2
2021/05/09 00:00:23;;;;;;;;;;;19.20;59.60;;;;;;5049483;28;19912;-78
2021/05/09 00:02:49;;;;;;;;;;;19.20;59.60;;;;;;5036878;28;19924;-80
2021/05/09 00:05:17;;;;;;;;;;;19.20;59.60;;;;;;5050412;28;19913;-80
2021/05/09 00:07:48;;;;;;;;;;;19.20;59.60;;;;;;5030977;28;19921;-80
2021/05/09 00:10:15;;;;;;;;;;;19.10;59.50;;;;;;5052855;28;20201;-79
2021/05/09 00:12:41;;;;;;;;;;;19.10;59.60;;;;;;5030879;28;19948;-79
2021/05/09 00:15:09;;;;;;;;;;;19.10;59.70;;;;;;5040057;28;20364;-82
2021/05/09 00:17:34;;;;;;;;;;;19.20;59.60;;;;;;5049381;28;19920;-80
2021/05/09 00:20:00;;;;;;;;;;;19.20;59.60;;;;;;5037338;28;20391;-80
2021/05/09 00:22:28;;;;;;;;;;;19.20;59.60;;;;;;5033085;28;19986;-80
2021/05/09 00:24:54;;;;;;;;;;;19.20;59.60;;;;;;5053316;28;19920;-80
2021/05/09 00:27:19;;;;;;;;;;;19.20;59.60;;;;;;5053917;28;20449;-80
2021/05/09 00:29:48;;;;;;;;;;;19.10;59.60;;;;;;5032920;28;20315;-79
2021/05/09 00:32:19;;;;;;;;;;;19.20;59.60;;;;;;5049387;28;20021;-80
2021/05/09 00:34:45;;;;;;;;;;;19.10;59.60;;;;;;5029218;28;19935;-80
2021/05/09 00:37:16;;;;;;;;;;;19.10;59.60;;;;;;5033863;28;19920;-79
2021/05/09 00:39:41;;;;;;;;;;;19.10;59.50;;;;;;5027819;28;19963;-80
2021/05/09 00:42:07;;;;;;;;;;;19.10;59.50;;;;;;5029931;28;19921;-80
2021/05/09 00:44:33;;;;;;;;;;;19.10;59.60;;;;;;5052831;28;19924;-79
2021/05/09 00:47:09;;;;;;;;;;;19.10;59.60;;;;;;5039259;28;19912;-81
2021/05/09 00:49:39;;;;;;;;;;;19.10;59.50;;;;;;5043421;28;19921;-80
2021/05/09 00:52:05;;;;;;;;;;;19.10;59.50;;;;;;5037607;28;19916;-80
2021/05/09 00:54:36;;;;;;;;;;;19.10;59.50;;;;;;5045074;28;20007;-79
2021/05/09 00:57:07;;;;;;;;;;;19.10;59.50;;;;;;5042248;28;19925;-80
2021/05/09 00:59:38;;;;;;;;;;;19.10;59.50;;;;;;5032427;28;19960;-80
2021/05/09 01:02:03;;;;;;;;;;;19.10;59.40;;;;;;5050006;28;19916;-80
2021/05/09 01:04:29;;;;;;;;;;;19.10;59.50;;;;;;5035114;28;19924;-79
2021/05/09 01:06:55;;;;;;;;;;;19.10;59.40;;;;;;5033270;28;20409;-80
2021/05/09 01:09:25;;;;;;;;;;;19.10;59.40;;;;;;5052378;28;19921;-80
2021/05/09 01:11:56;;;;;;;;;;;19.10;59.40;;;;;;5035790;28;19916;-80
2021/05/09 01:14:21;;;;;;;;;;;19.10;59.40;;;;;;5036607;28;19979;-80
2021/05/09 01:16:52;;;;;;;;;;;19.10;59.40;;;;;;5024129;28;20374;-79
2021/05/09 01:19:17;;;;;;;;;;;19.10;59.40;;;;;;5034764;28;20010;-80
2021/05/09 01:21:47;;;;;;;;;;;19.10;59.40;;;;;;5039520;28;19920;-80
2021/05/09 01:24:15;;;;;;;;;;;19.10;59.40;;;;;;5032973;28;20277;-80
2021/05/09 01:26:41;;;;;;;;;;;19.10;59.40;;;;;;5028774;28;19913;-80
2021/05/09 01:29:12;;;;;;;;;;;19.10;59.40;;;;;;5053122;28;19934;-80
2021/05/09 01:31:43;;;;;;;;;;;19.00;59.40;;;;;;5049445;28;19912;-80
2021/05/09 01:34:14;;;;;;;;;;;19.10;59.30;;;;;;5034029;28;19916;-80
2021/05/09 01:36:40;;;;;;;;;;;19.00;59.30;;;;;;5052797;28;20011;-79
2021/05/09 01:39:07;;;;;;;;;;;19.10;59.30;;;;;;5029028;28;20453;-79
2021/05/09 01:41:37;;;;;;;;;;;19.10;59.20;;;;;;5048138;28;19920;-80
2021/05/09 01:44:08;;;;;;;;;;;19.00;59.30;;;;;;5047946;28;20013;-79
2021/05/09 01:46:40;;;;;;;;;;;19.00;59.20;;;;;;5038552;28;19912;-80
2021/05/09 01:49:11;;;;;;;;;;;19.10;59.20;;;;;;5047608;28;19912;-81
2021/05/09 01:51:37;;;;;;;;;;;19.00;59.20;;;;;;5042140;28;19921;-80
2021/05/09 01:54:07;;;;;;;;;;;19.00;59.20;;;;;;5033185;28;19920;-80
2021/05/09 01:56:33;;;;;;;;;;;19.10;59.20;;;;;;5027722;28;19917;-80
2021/05/09 01:59:03;;;;;;;;;;;19.10;59.20;;;;;;5019531;28;19925;-80
2021/05/09 02:01:32;;;;;;;;;;;19.10;59.10;;;;;;5033691;28;19931;-80
2021/05/09 02:04:02;;;;;;;;;;;19.00;59.10;;;;;;5051493;28;19920;-80
2021/05/09 02:06:33;;;;;;;;;;;19.10;59.10;;;;;;5032016;28;19967;-83
2021/05/09 02:08:58;;;;;;;;;;;19.10;59.10;;;;;;5028938;28;19921;-82
2021/05/09 02:11:24;;;;;;;;;;;19.00;59.10;;;;;;5052146;28;19924;-80
2021/05/09 02:13:49;;;;;;;;;;;19.10;59.10;;;;;;5045768;28;19920;-80
2021/05/09 02:16:18;;;;;;;;;;;19.00;59.10;;;;;;5034455;28;20393;-80
2021/05/09 02:18:43;;;;;;;;;;;19.00;59.10;;;;;;5047041;28;19913;-80
2021/05/09 02:21:15;;;;;;;;;;;19.00;59.00;;;;;;5053946;28;19928;-80
2021/05/09 02:23:46;;;;;;;;;;;19.00;59.00;;;;;;5051921;28;19916;-79
2021/05/09 02:26:16;;;;;;;;;;;19.00;59.00;;;;;;5033661;28;20008;-80
2021/05/09 02:28:48;;;;;;;;;;;19.00;58.90;;;;;;5051418;28;20285;-79
2021/05/09 02:31:14;;;;;;;;;;;19.00;59.00;;;;;;5034035;28;19965;-80
2021/05/09 02:33:44;;;;;;;;;;;19.00;58.90;;;;;;5030433;28;20318;-80
2021/05/09 02:36:09;;;;;;;;;;;19.00;58.90;;;;;;5033341;28;19912;-79
2021/05/09 02:38:35;;;;;;;;;;;19.00;58.90;;;;;;5034082;28;19938;-80
2021/05/09 02:41:03;;;;;;;;;;;19.00;58.80;;;;;;5051409;28;19917;-80
2021/05/09 02:43:34;;;;;;;;;;;19.00;58.90;;;;;;5043011;28;19924;-79
2021/05/09 02:45:59;;;;;;;;;;;19.00;58.80;;;;;;5026738;28;20250;-79
2021/05/09 02:48:34;;;;;;;;;;;19.00;58.80;;;;;;5025248;28;19932;-80
2021/05/09 02:51:05;;;;;;;;;;;19.00;58.80;;;;;;5054069;28;19917;-79
2021/05/09 02:53:31;;;;;;;;;;;19.00;58.80;;;;;;5047112;28;20358;-79
2021/05/09 02:55:57;;;;;;;;;;;19.00;58.80;;;;;;5034493;28;20412;-79
2021/05/09 02:58:22;;;;;;;;;;;19.00;58.70;;;;;;5027494;28;19913;-81
2021/05/09 03:00:53;;;;;;;;;;;19.00;58.80;;;;;;5026801;28;19923;-79
2021/05/09 03:03:18;;;;;;;;;;;19.00;58.80;;;;;;5022570;28;20389;-79
2021/05/09 03:05:44;;;;;;;;;;;19.00;58.80;;;;;;5048254;28;19917;-79
2021/05/09 03:08:10;;;;;;;;;;;19.00;58.70;;;;;;5049239;28;19952;-79
2021/05/09 03:10:36;;;;;;;;;;;19.00;58.70;;;;;;5030109;28;19921;-78
2021/05/09 03:13:02;;;;;;;;;;;19.00;58.70;;;;;;5035121;28;19927;-78
2021/05/09 03:15:33;;;;;;;;;;;19.00;58.60;;;;;;5027953;28;19917;-79
2021/05/09 03:17:59;;;;;;;;;;;19.00;58.50;;;;;;5033433;28;21880;-79
2021/05/09 03:20:29;;;;;;;;;;;19.00;58.60;;;;;;5028787;28;20012;-78
2021/05/09 03:23:00;;;;;;;;;;;19.00;58.50;;;;;;5030060;28;19918;-78
2021/05/09 03:25:31;;;;;;;;;;;19.00;58.40;;;;;;5032446;28;19920;-79
2021/05/09 03:28:02;;;;;;;;;;;19.00;58.50;;;;;;5026265;28;20777;-79
2021/05/09 03:30:27;;;;;;;;;;;19.00;58.40;;;;;;5032843;28;19967;-79
2021/05/09 03:32:56;;;;;;;;;;;19.00;58.40;;;;;;5035038;28;20016;-79
2021/05/09 03:35:22;;;;;;;;;;;19.00;58.30;;;;;;5035025;28;19973;-79
2021/05/09 03:37:47;;;;;;;;;;;19.00;58.30;;;;;;5032956;28;19959;-80
2021/05/09 03:40:13;;;;;;;;;;;19.00;58.30;;;;;;5033463;28;20309;-79
2021/05/09 03:42:38;;;;;;;;;;;18.90;58.30;;;;;;5036625;28;19917;-79
2021/05/09 03:45:04;;;;;;;;;;;19.00;58.20;;;;;;5026986;28;19921;-79
2021/05/09 03:47:34;;;;;;;;;;;19.00;58.20;;;;;;5034555;28;19964;-80
2021/05/09 03:50:00;;;;;;;;;;;18.90;58.20;;;;;;5028427;28;19925;-78
2021/05/09 03:52:38;;;;;;;;;;;19.00;58.20;;;;;;5057089;28;19914;-80
2021/05/09 03:55:04;;;;;;;;;;;19.00;58.20;;;;;;5031702;28;19935;-79
2021/05/09 03:57:29;;;;;;;;;;;19.00;58.10;;;;;;5033502;28;20421;-79
2021/05/09 03:59:55;;;;;;;;;;;19.00;58.00;;;;;;5034496;28;20341;-79
2021/05/09 04:02:20;;;;;;;;;;;19.00;58.00;;;;;;5050040;28;19957;-79
2021/05/09 04:04:46;;;;;;;;;;;19.00;58.10;;;;;;5038017;28;19921;-78
2021/05/09 04:07:11;;;;;;;;;;;19.00;58.20;;;;;;5025238;28;20015;-78
2021/05/09 04:09:37;;;;;;;;;;;19.00;58.30;;;;;;5028093;28;20079;-79
2021/05/09 04:12:04;;;;;;;;;;;19.00;58.10;;;;;;5033563;28;20349;-79
2021/05/09 04:14:30;;;;;;;;;;;18.90;58.10;;;;;;5034071;28;19913;-79
2021/05/09 04:16:56;;;;;;;;;;;19.00;58.10;;;;;;5027817;28;19913;-81
2021/05/09 04:19:22;;;;;;;;;;;18.90;58.10;;;;;;5029273;28;19913;-79
2021/05/09 04:21:47;;;;;;;;;;;19.00;58.10;;;;;;5033389;28;19929;-79
2021/05/09 04:24:13;;;;;;;;;;;19.00;58.10;;;;;;5023618;28;19923;-79
2021/05/09 04:26:38;;;;;;;;;;;19.00;58.00;;;;;;5027125;28;19920;-79
2021/05/09 04:29:04;;;;;;;;;;;19.00;58.10;;;;;;5027913;28;19978;-79
2021/05/09 04:31:30;;;;;;;;;;;19.00;58.00;;;;;;5033302;28;19920;-78
2021/05/09 04:33:55;;;;;;;;;;;19.00;58.00;;;;;;5032863;28;19992;-77
2021/05/09 04:36:21;;;;;;;;;;;19.00;58.00;;;;;;5047365;28;19920;-79
2021/05/09 04:38:46;;;;;;;;;;;19.00;58.00;;;;;;5033004;28;19967;-79
2021/05/09 04:41:12;;;;;;;;;;;19.00;58.00;;;;;;5033644;28;20056;-80
2021/05/09 04:43:39;;;;;;;;;;;19.00;58.10;;;;;;5032957;28;20286;-81
2021/05/09 04:46:04;;;;;;;;;;;19.00;58.30;;;;;;5024076;28;19918;-80
2021/05/09 04:48:30;;;;;;;;;;;19.00;58.20;;;;;;5038185;28;19913;-80
2021/05/09 04:50:56;;;;;;;;;;;19.10;58.40;;;;;;5032550;28;20282;-80
2021/05/09 04:53:24;;;;;;;;;;;19.00;58.20;;;;;;5031766;28;20331;-80
2021/05/09 04:55:51;;;;;;;;;;;19.00;58.30;;;;;;5033698;28;20445;-81
2021/05/09 04:58:21;;;;;;;;;;;19.10;58.20;;;;;;5031986;28;19923;-80
2021/05/09 05:00:49;;;;;;;;;;;19.00;58.20;;;;;;5031370;28;19925;-80
2021/05/09 05:03:16;;;;;;;;;;;19.10;58.10;;;;;;5030235;28;19928;-80
2021/05/09 05:05:41;;;;;;;;;;;19.10;58.10;;;;;;5033129;28;19913;-80
2021/05/09 05:08:07;;;;;;;;;;;19.00;58.20;;;;;;5029708;28;19913;-80
2021/05/09 05:10:32;;;;;;;;;;;19.00;58.20;;;;;;5026332;28;19921;-79
2021/05/09 05:12:58;;;;;;;;;;;19.10;58.10;;;;;;5032616;28;20347;-80
2021/05/09 05:15:23;;;;;;;;;;;19.10;58.10;;;;;;5032407;28;19921;-80
2021/05/09 05:17:49;;;;;;;;;;;19.10;58.00;;;;;;5033481;28;19920;-80
2021/05/09 05:20:15;;;;;;;;;;;19.10;58.10;;;;;;5028760;28;19917;-80
2021/05/09 05:22:40;;;;;;;;;;;19.10;58.00;;;;;;5030371;28;19929;-81
2021/05/09 05:25:06;;;;;;;;;;;19.10;58.00;;;;;;5035748;28;19917;-81
2021/05/09 05:27:37;;;;;;;;;;;19.10;58.00;;;;;;5031326;28;19969;-80
2021/05/09 05:30:03;;;;;;;;;;;19.10;57.90;;;;;;5029465;28;19913;-80
2021/05/09 05:32:28;;;;;;;;;;;19.10;57.90;;;;;;5046172;28;19920;-80
2021/05/09 05:34:54;;;;;;;;;;;19.10;57.90;;;;;;5031962;28;19921;-80
2021/05/09 05:37:19;;;;;;;;;;;19.10;57.80;;;;;;5029604;28;19960;-81
2021/05/09 05:39:49;;;;;;;;;;;19.20;57.80;;;;;;5031647;28;19959;-81
2021/05/09 05:42:15;;;;;;;;;;;19.20;57.80;;;;;;5031797;28;19928;-80
2021/05/09 05:44:45;;;;;;;;;;;19.10;57.80;;;;;;5038292;28;19917;-81
2021/05/09 05:47:23;;;;;;;;;;;19.10;57.80;;;;;;5024925;28;20426;-79
2021/05/09 05:49:49;;;;;;;;;;;19.10;57.70;;;;;;5033442;28;19913;-80
2021/05/09 05:52:20;;;;;;;;;;;19.20;57.70;;;;;;5031776;28;20004;-80
2021/05/09 05:54:45;;;;;;;;;;;19.20;57.70;;;;;;5030005;28;19924;-80
2021/05/09 05:57:13;;;;;;;;;;;19.20;57.60;;;;;;5032421;28;19913;-80
2021/05/09 05:59:39;;;;;;;;;;;19.20;57.60;;;;;;5022166;28;19919;-81
2021/05/09 06:02:04;;;;;;;;;;;19.20;57.60;;;;;;5030814;28;20290;-80
2021/05/09 06:04:30;;;;;;;;;;;19.20;57.50;;;;;;5031142;28;19921;-80
2021/05/09 06:06:55;;;;;;;;;;;19.20;57.60;;;;;;5031270;28;19913;-81
2021/05/09 06:09:26;;;;;;;;;;;19.20;57.60;;;;;;5035610;28;19927;-82
2021/05/09 06:12:03;;;;;;;;;;;19.20;57.50;;;;;;5048864;28;20431;-80
2021/05/09 06:14:42;;;;;;;;;;;19.20;57.50;;;;;;5034292;28;19956;-80
2021/05/09 06:17:08;;;;;;;;;;;19.20;57.50;;;;;;5031929;28;19913;-80
2021/05/09 06:19:33;;;;;;;;;;;19.30;57.50;;;;;;5032475;28;19920;-80
2021/05/09 06:21:59;;;;;;;;;;;19.20;57.50;;;;;;5055639;28;19928;-80
2021/05/09 06:24:24;;;;;;;;;;;19.20;57.40;;;;;;5051763;28;19924;-80
2021/05/09 06:26:50;;;;;;;;;;;19.30;57.50;;;;;;5026519;28;20278;-81
2021/05/09 06:29:16;;;;;;;;;;;19.30;57.40;;;;;;5037261;28;19913;-81
2021/05/09 06:31:49;;;;;;;;;;;19.30;57.40;;;;;;5051404;28;20345;-80
2021/05/09 06:34:15;;;;;;;;;;;19.30;57.40;;;;;;5051826;28;19917;-80
2021/05/09 06:36:40;;;;;;;;;;;19.30;57.40;;;;;;5038063;28;19961;-80
2021/05/09 06:39:06;;;;;;;;;;;19.30;57.40;;;;;;5051848;28;19913;-79
2021/05/09 06:41:34;;;;;;;;;;;19.30;57.60;;;;;;5033696;28;19917;-80
2021/05/09 06:44:08;;;;;;;;;;;19.30;57.70;;;;;;5048680;28;20374;-80
2021/05/09 06:46:34;;;;;;;;;;;19.30;57.70;;;;;;5041071;28;19913;-80
2021/05/09 06:49:04;;;;;;;;;;;19.30;57.50;;;;;;5035337;28;19923;-81
2021/05/09 06:51:44;;;;;;;;;;;19.30;57.50;;;;;;5037716;28;20287;-80
2021/05/09 06:54:10;;;;;;;;;;;19.30;57.50;;;;;;5046658;28;19913;-80
2021/05/09 06:56:36;;;;;;;;;;;19.30;57.40;;;;;;5037756;28;20415;-79
2021/05/09 06:59:03;;;;;;;;;;;19.30;57.60;;;;;;5036550;28;19963;-82
2021/05/09 07:01:29;;;;;;;;;;;19.40;57.70;;;;;;5051600;28;19923;-79
2021/05/09 07:03:55;;;;;;;;;;;19.40;58.00;;;;;;5055156;28;19960;-81
2021/05/09 07:06:21;;;;;;;;;;;19.40;58.00;;;;;;5037839;28;20336;-81
2021/05/09 07:08:51;;;;;;;;;;;19.40;57.80;;;;;;5054898;28;19927;-80
2021/05/09 07:11:17;;;;;;;;;;;19.40;57.80;;;;;;5054357;28;19920;-80
2021/05/09 07:13:42;;;;;;;;;;;19.40;58.00;;;;;;5048678;28;19951;-80
2021/05/09 07:16:08;;;;;;;;;;;19.40;57.90;;;;;;5037664;28;20358;-81
2021/05/09 07:18:37;;;;;;;;;;;19.40;58.00;;;;;;5054999;28;20255;-79
2021/05/09 07:21:10;;;;;;;;;;;19.40;58.10;;;;;;5055531;28;19917;-80
2021/05/09 07:23:38;;;;;;;;;;;19.50;58.10;;;;;;5054710;28;20015;-79
2021/05/09 07:26:10;;;;;;;;;;;19.50;58.30;;;;;;5057058;28;19920;-79
2021/05/09 07:28:35;;;;;;;;;;;19.50;58.30;;;;;;5055100;28;20355;-78
2021/05/09 07:31:01;;;;;;;;;;;19.50;58.30;;;;;;5032794;28;20003;-78
2021/05/09 07:33:26;;;;;;;;;;;19.50;58.30;;;;;;5053830;28;19913;-78
2021/05/09 07:35:52;;;;;;;;;;;19.50;58.30;;;;;;5053435;28;19913;-79
2021/05/09 07:38:17;;;;;;;;;;;19.60;58.20;;;;;;5053321;28;20224;-78
2021/05/09 07:40:44;;;;;;;;;;;19.60;58.30;;;;;;5033509;28;20412;-79
2021/05/09 07:43:10;;;;;;;;;;;19.60;58.30;;;;;;5031305;28;20354;-79
2021/05/09 07:45:36;;;;;;;;;;;19.60;58.30;;;;;;5051244;28;20313;-79
2021/05/09 07:48:01;;;;;;;;;;;19.60;58.20;;;;;;5036396;28;19912;-82
2021/05/09 07:50:27;;;;;;;;;;;19.60;58.30;;;;;;5037037;28;19959;-79
2021/05/09 07:52:57;;;;;;;;;;;19.60;58.40;;;;;;5051617;28;19927;-79
2021/05/09 07:55:23;;;;;;;;;;;19.60;58.40;;;;;;5039841;28;19958;-78
2021/05/09 07:57:54;;;;;;;;;;;19.70;58.30;;;;;;5037089;28;19913;-82
2021/05/09 08:00:21;;;;;;;;;;;19.70;58.30;;;;;;5054502;28;19913;-79
2021/05/09 08:02:49;;;;;;;;;;;19.70;58.40;;;;;;5035637;28;19917;-78
2021/05/09 08:05:19;;;;;;;;;;;19.60;58.30;;;;;;5053826;28;19924;-79
2021/05/09 08:07:48;;;;;;;;;;;19.70;58.30;;;;;;5053697;28;19968;-79
2021/05/09 08:10:14;;;;;;;;;;;19.70;58.30;;;;;;5053271;28;20375;-80
2021/05/09 08:12:40;;;;;;;;;;;19.70;58.40;;;;;;5036361;28;20004;-79
2021/05/09 08:15:07;;;;;;;;;;;19.70;58.30;;;;;;5049556;28;21269;-80
2021/05/09 08:17:32;;;;;;;;;;;19.70;58.30;;;;;;5053075;28;19952;-79
2021/05/09 08:19:58;;;;;;;;;;;19.70;58.30;;;;;;5052689;28;20353;-79
2021/05/09 08:22:23;;;;;;;;;;;19.70;58.20;;;;;;5036303;28;19916;-78
2021/05/09 08:24:49;;;;;;;;;;;19.70;58.20;;;;;;5048922;28;19964;-78
2021/05/09 08:27:19;;;;;;;;;;;19.70;58.20;;;;;;5051867;28;20011;-78
2021/05/09 08:29:45;;;;;;;;;;;19.70;58.20;;;;;;5048259;28;19920;-82
2021/05/09 08:32:15;;;;;;;;;;;19.80;58.20;;;;;;5035497;28;19913;-79
2021/05/09 08:34:41;;;;;;;;;;;19.70;58.10;;;;;;5051846;28;20358;-79
2021/05/09 08:37:06;;;;;;;;;;;19.80;58.20;;;;;;5053488;28;19967;-79
2021/05/09 08:39:46;;;;;;;;;;;19.80;58.10;;;;;;5053819;28;19921;-79
2021/05/09 08:42:15;;;;;;;;;;;19.80;58.10;;;;;;5034479;28;19924;-81
2021/05/09 08:44:54;;;;;;;;;;;19.80;58.10;;;;;;5047163;28;19917;-79
2021/05/09 08:47:36;;;;;;;;;;;19.80;58.00;;;;;;5026656;28;20336;-79
2021/05/09 08:50:02;;;;;;;;;;;19.80;58.00;;;;;;5034974;28;20397;-78
2021/05/09 08:52:31;;;;;;;;;;;19.80;58.00;;;;;;5053690;28;19919;-79
2021/05/09 08:54:57;;;;;;;;;;;19.80;57.90;;;;;;5033916;28;19912;-80
2021/05/09 08:57:22;;;;;;;;;;;19.80;57.90;;;;;;5032606;28;19913;-79
2021/05/09 08:59:48;;;;;;;;;;;19.80;57.90;;;;;;5043700;28;19912;-79
2021/05/09 09:02:14;;;;;;;;;;;19.80;57.90;;;;;;5033338;28;19970;-79
2021/05/09 09:04:50;;;;;;;;;;;19.80;57.90;;;;;;5055075;28;19916;-78
2021/05/09 09:07:15;;;;;;;;;;;19.80;57.90;;;;;;5047321;28;20007;-78
2021/05/09 09:09:48;;;;;;;;;;;19.80;57.80;;;;;;5030091;28;20425;-76
2021/05/09 09:12:14;;;;;;;;;;;19.90;57.80;;;;;;5051599;28;19913;-78
2021/05/09 09:14:52;;;;;;;;;;;19.90;57.80;;;;;;5025949;28;19916;-77
2021/05/09 09:17:18;;;;;;;;;;;19.90;57.80;;;;;;5053174;28;19938;-77
2021/05/09 09:20:01;;;;;;;;;;;19.90;57.80;;;;;;5052473;28;20071;-83
2021/05/09 09:22:28;;;;;;;;;;;19.90;57.80;;;;;;5048793;28;19952;-82
2021/05/09 09:25:06;;;;;;;;;;;19.90;58.90;;;;;;5037694;28;19925;-81
2021/05/09 09:27:36;;;;;;;;;;;20.00;58.70;;;;;;5052606;28;19959;-81
2021/05/09 09:30:04;;;;;;;;;;;20.00;58.50;;;;;;5036323;28;19913;-81
2021/05/09 09:32:29;;;;;;;;;;;20.00;58.50;;;;;;5052800;28;19913;-81
2021/05/09 09:34:55;;;;;;;;;;;20.00;58.60;;;;;;5051268;28;20431;-83
2021/05/09 09:37:21;;;;;;;;;;;20.00;58.60;;;;;;5035514;28;19920;-84
2021/05/09 09:39:59;;;;;;;;;;;20.00;58.70;;;;;;5050361;28;19913;-79
2021/05/09 09:42:46;;;;;;;;;;;20.00;58.60;;;;;;5025664;28;20054;-81
2021/05/09 09:45:26;;;;;;;;;;;20.00;59.10;;;;;;5031267;28;19952;-80
2021/05/09 09:47:51;;;;;;;;;;;20.00;58.70;;;;;;5027056;28;19917;-81
2021/05/09 09:50:35;;;;;;;;;;;20.00;58.80;;;;;;5053504;28;19913;-79
2021/05/09 09:53:02;;;;;;;;;;;20.00;58.90;;;;;;5053399;28;19916;-80
2021/05/09 09:55:32;;;;;;;;;;;20.00;58.80;;;;;;5051215;28;20282;-80
2021/05/09 09:58:06;;;;;;;;;;;20.00;58.80;;;;;;5036441;28;20285;-80
2021/05/09 10:00:32;;;;;;;;;;;20.10;58.80;;;;;;5051623;28;19967;-80
2021/05/09 10:02:57;;;;;;;;;;;20.10;58.80;;;;;;5031892;28;20326;-80
2021/05/09 10:05:23;;;;;;;;;;;20.10;59.10;;;;;;5052016;28;19920;-81
2021/05/09 10:07:48;;;;;;;;;;;20.10;59.10;;;;;;5030882;28;19913;-80
2021/05/09 10:10:14;;;;;;;;;;;20.10;59.10;;;;;;5046312;28;19920;-80
2021/05/09 10:12:40;;;;;;;;;;;20.20;59.00;;;;;;5052143;28;19920;-80
2021/05/09 10:15:06;;;;;;;;;;;20.10;59.20;;;;;;5051380;28;20358;-81
2021/05/09 10:17:38;;;;;;;;;;;20.10;59.30;;;;;;5046447;28;19966;-79
2021/05/09 10:20:04;;;;;;;;;;;20.20;59.50;;;;;;5028048;28;20067;-82
2021/05/09 10:22:38;;;;;;;;;;;20.20;59.70;;;;;;5039375;28;19938;-81
2021/05/09 10:25:08;;;;;;;;;;;20.20;59.80;;;;;;5036427;28;19917;-80
2021/05/09 10:27:41;;;;;;;;;;;20.20;60.00;;;;;;5047878;28;19912;-81
2021/05/09 10:30:08;;;;;;;;;;;20.20;60.10;;;;;;5035970;28;19913;-80
2021/05/09 10:32:33;;;;;;;;;;;20.20;60.30;;;;;;5033806;28;19916;-79
2021/05/09 10:35:01;;;;;;;;;;;20.20;60.00;;;;;;5033811;28;19909;-79
2021/05/09 10:37:50;;;;;;;;;;;20.20;59.90;;;;;;5032032;28;19996;-80
2021/05/09 10:40:19;;;;;;;;;;;20.20;59.80;;;;;;5038978;28;19960;-83
2021/05/09 10:42:49;;;;;;;;;;;20.30;59.70;;;;;;5052378;28;19923;-80
2021/05/09 10:45:33;;;;;;;;;;;20.30;59.60;;;;;;5051625;28;19921;-80
2021/05/09 10:48:20;;;;;;;;;;;20.30;59.50;;;;;;5041689;28;20015;-80
2021/05/09 10:50:56;;;;;;;;;;;20.30;59.50;;;;;;5047773;28;19913;-81
2021/05/09 10:53:34;;;;;;;;;;;20.30;59.30;;;;;;5036547;28;19920;-81
2021/05/09 10:56:03;;;;;;;;;;;20.30;59.30;;;;;;5051987;28;20057;-81
2021/05/09 10:58:42;;;;;;;;;;;20.30;59.20;;;;;;5051247;28;20374;-80
2021/05/09 11:01:07;;;;;;;;;;;20.30;59.20;;;;;;5043212;28;20403;-81
2021/05/09 11:03:39;;;;;;;;;;;20.30;59.10;;;;;;5050093;28;20047;-80
2021/05/09 11:06:05;;;;;;;;;;;20.30;59.00;;;;;;5052076;28;19924;-80
2021/05/09 11:08:50;;;;;;;;;;;20.30;59.00;;;;;;5050314;28;19913;-81
2021/05/09 11:11:20;;;;;;;;;;;20.30;58.90;;;;;;5036151;28;20369;-80
2021/05/09 11:14:01;;;;;;;;;;;20.30;58.80;;;;;;5047639;28;19921;-81
2021/05/09 11:16:32;;;;;;;;;;;20.30;58.80;;;;;;5049588;28;20261;-80
2021/05/09 11:18:57;;;;;;;;;;;20.30;58.70;;;;;;5050105;28;19913;-80
2021/05/09 11:21:29;;;;;;;;;;;20.30;58.70;;;;;;5054020;28;19924;-82
2021/05/09 11:24:00;;;;;;;;;;;20.30;58.60;;;;;;5033548;28;20329;-80
2021/05/09 11:26:27;;;;;;;;;;;20.30;58.60;;;;;;5033671;28;19919;-81
2021/05/09 11:29:04;;;;;;;;;;;20.30;58.50;;;;;;5051961;28;20393;-80
2021/05/09 11:31:34;;;;;;;;;;;20.30;58.50;;;;;;5053621;28;19913;-80
2021/05/09 11:34:00;;;;;;;;;;;20.30;58.50;;;;;;5051497;28;19965;-80
2021/05/09 11:36:29;;;;;;;;;;;20.40;58.40;;;;;;5036918;28;19913;-80
2021/05/09 11:39:08;;;;;;;;;;;20.40;58.40;;;;;;5035991;28;19921;-80
2021/05/09 11:41:52;;;;;;;;;;;20.30;58.30;;;;;;5036660;28;20362;-80
2021/05/09 11:44:18;;;;;;;;;;;20.40;58.30;;;;;;5048477;28;19920;-80
2021/05/09 11:46:44;;;;;;;;;;;20.30;58.30;;;;;;5036981;28;19913;-82
2021/05/09 11:49:23;;;;;;;;;;;20.40;58.30;;;;;;5054958;28;20042;-79
2021/05/09 11:51:51;;;;;;;;;;;20.40;58.20;;;;;;5036933;28;19920;-78
2021/05/09 11:54:18;;;;;;;;;;;20.40;58.20;;;;;;5054862;28;20281;-79
2021/05/09 11:56:50;;;;;;;;;;;20.40;58.10;;;;;;5054510;28;19919;-78
2021/05/09 11:59:31;;;;;;;;;;;20.40;58.10;;;;;;5047233;28;19917;-78
2021/05/09 12:02:02;;;;;;;;;;;20.40;58.00;;;;;;5051092;28;19917;-79
2021/05/09 12:04:31;;;;;;;;;;;20.40;58.00;;;;;;5036983;28;20392;-78
2021/05/09 12:06:57;;;;;;;;;;;20.40;57.90;;;;;;5054227;28;20282;-78
2021/05/09 12:09:23;;;;;;;;;;;20.40;57.90;;;;;;5033317;28;20389;-78
2021/05/09 12:12:03;;;;;;;;;;;20.50;57.80;;;;;;5053976;28;19913;-78
2021/05/09 12:14:28;;;;;;;;;;;20.50;57.80;;;;;;5047041;28;19913;-77
2021/05/09 12:16:55;;;;;;;;;;;20.50;57.80;;;;;;5036533;28;20278;-81
2021/05/09 12:19:30;;;;;;;;;;;20.50;57.80;;;;;;5054336;28;19966;-78
2021/05/09 12:21:57;;;;;;;;;;;20.50;57.70;;;;;;5036290;28;19921;-79
2021/05/09 12:24:23;;;;;;;;;;;20.50;57.60;;;;;;5054235;28;20362;-79
2021/05/09 12:27:02;;;;;;;;;;;20.50;57.60;;;;;;5052761;28;19920;-78
2021/05/09 12:29:48;;;;;;;;;;;20.50;57.60;;;;;;5018578;28;19920;-79
2021/05/09 12:32:18;;;;;;;;;;;20.50;57.60;;;;;;5032642;28;19913;-78
2021/05/09 12:35:06;;;;;;;;;;;20.50;57.50;;;;;;5036198;28;20388;-78
2021/05/09 12:37:32;;;;;;;;;;;20.50;57.50;;;;;;5054067;28;19964;-78
2021/05/09 12:40:18;;;;;;;;;;;20.50;57.50;;;;;;5053264;28;20015;-79
2021/05/09 12:42:56;;;;;;;;;;;20.50;57.40;;;;;;5048412;28;20281;-79
2021/05/09 12:45:41;;;;;;;;;;;20.50;57.40;;;;;;5050259;28;19921;-79
2021/05/09 12:48:09;;;;;;;;;;;20.60;57.40;;;;;;5051567;28;19958;-79
2021/05/09 12:50:54;;;;;;;;;;;20.60;57.30;;;;;;5052514;28;19920;-79
2021/05/09 12:53:39;;;;;;;;;;;20.60;57.30;;;;;;5051542;28;19971;-78
2021/05/09 12:56:16;;;;;;;;;;;20.60;57.30;;;;;;5049614;28;19921;-80
2021/05/09 12:59:00;;;;;;;;;;;20.60;57.20;;;;;;5050921;28;19935;-79
2021/05/09 13:01:34;;;;;;;;;;;20.60;57.10;;;;;;5049918;28;19960;-79
2021/05/09 13:04:00;;;;;;;;;;;20.60;57.10;;;;;;5035763;28;19917;-79
2021/05/09 13:06:26;;;;;;;;;;;20.60;57.10;;;;;;5035749;28;19917;-79
2021/05/09 13:08:57;;;;;;;;;;;20.70;57.00;;;;;;5054381;28;19932;-79
2021/05/09 13:11:23;;;;;;;;;;;20.70;57.10;;;;;;5056206;28;19913;-79
2021/05/09 13:13:49;;;;;;;;;;;20.60;57.00;;;;;;5033833;28;19914;-79
2021/05/09 13:16:14;;;;;;;;;;;20.70;57.00;;;;;;5034967;28;20286;-78
2021/05/09 13:18:47;;;;;;;;;;;20.60;57.00;;;;;;5036051;28;19912;-79
2021/05/09 13:21:13;;;;;;;;;;;20.70;56.90;;;;;;5051108;28;19917;-79
2021/05/09 13:23:38;;;;;;;;;;;20.70;56.90;;;;;;5032220;28;19917;-79
2021/05/09 13:26:04;;;;;;;;;;;20.70;56.80;;;;;;5053127;28;19913;-78
2021/05/09 13:28:29;;;;;;;;;;;20.70;56.80;;;;;;5045607;28;19913;-79
2021/05/09 13:30:55;;;;;;;;;;;20.70;56.80;;;;;;5035051;28;19924;-79
2021/05/09 13:33:20;;;;;;;;;;;20.70;56.90;;;;;;5034681;28;19912;-81
2021/05/09 13:35:46;;;;;;;;;;;20.70;56.90;;;;;;5044860;28;20007;-79
2021/05/09 13:38:11;;;;;;;;;;;20.70;56.90;;;;;;5049574;28;19935;-79
2021/05/09 13:40:37;;;;;;;;;;;20.70;56.80;;;;;;5035300;28;19940;-79
2021/05/09 13:43:02;;;;;;;;;;;20.70;56.80;;;;;;5025009;28;19956;-79
2021/05/09 13:45:28;;;;;;;;;;;20.70;56.70;;;;;;5032797;28;20388;-78
2021/05/09 13:47:53;;;;;;;;;;;20.80;56.70;;;;;;5049722;28;19913;-79
2021/05/09 13:50:19;;;;;;;;;;;20.70;56.70;;;;;;5030461;28;20412;-80
2021/05/09 13:52:45;;;;;;;;;;;20.80;56.70;;;;;;5034060;28;19917;-79
2021/05/09 13:55:11;;;;;;;;;;;20.80;56.60;;;;;;5034519;28;19958;-79
2021/05/09 13:57:37;;;;;;;;;;;20.80;56.60;;;;;;5051763;28;19912;-79
2021/05/09 14:00:03;;;;;;;;;;;20.80;56.60;;;;;;5034728;28;19958;-79
2021/05/09 14:02:29;;;;;;;;;;;20.80;56.50;;;;;;5040463;28;19923;-79
2021/05/09 14:04:59;;;;;;;;;;;20.80;56.50;;;;;;5034786;28;20140;-79
2021/05/09 14:07:25;;;;;;;;;;;20.80;56.40;;;;;;5036488;28;19920;-79
2021/05/09 14:09:50;;;;;;;;;;;20.80;56.40;;;;;;5052261;28;19921;-79
2021/05/09 14:12:20;;;;;;;;;;;20.80;56.30;;;;;;5039211;28;19912;-81
2021/05/09 14:14:51;;;;;;;;;;;20.80;56.20;;;;;;5035053;28;20015;-79
2021/05/09 14:17:20;;;;;;;;;;;20.80;56.30;;;;;;5031800;28;20255;-79
2021/05/09 14:19:46;;;;;;;;;;;20.80;56.20;;;;;;5043265;28;20373;-79
2021/05/09 14:22:11;;;;;;;;;;;20.80;56.20;;;;;;5048084;28;19917;-79
2021/05/09 14:24:37;;;;;;;;;;;20.90;56.10;;;;;;5035034;28;19913;-80